Time;durP1;ratioP1;P1;durP2;ratioP2;P2;SDS_P1;SDS_P2;PMS_P1;PMS_P2;Temp;Humidity;BMP_temperature;BMP_pressure;BME280_temperature;BME280_humidity;BME280_pressure;Samples;Min_cycle;Max_cycle;Signal;HPM_P1;HPM_P2
2022/06/10 00:02:30;;;;;;;3.53;1.80;;;10.70;99.90;;;;;;20751892;28;20053;-76
2022/06/10 00:12:30;;;;;;;5.77;2.17;;;10.60;99.90;;;;;;20751112;28;20049;-76
2022/06/10 00:22:32;;;;;;;9.23;1.87;;;10.40;99.90;;;;;;20750333;28;20299;-75
2022/06/10 00:32:32;;;;;;;7.57;2.00;;;10.30;99.90;;;;;;20731819;28;20041;-76
2022/06/10 00:42:35;;;;;;;5.23;2.10;;;10.00;99.90;;;;;;20748680;28;20483;-75
2022/06/10 00:52:39;;;;;;;4.47;2.00;;;9.80;99.90;;;;;;20747880;28;20076;-75
2022/06/10 01:02:40;;;;;;;7.28;2.22;;;9.50;99.90;;;;;;20747168;28;20030;-77
2022/06/10 01:13:00;;;;;;;4.87;2.10;;;9.70;99.90;;;;;;20746570;28;20037;-76
2022/06/10 01:23:19;;;;;;;5.07;2.20;;;9.80;99.90;;;;;;20745891;28;20037;-76
2022/06/10 01:33:37;;;;;;;9.93;2.92;;;9.90;99.90;;;;;;20745039;28;20566;-75
2022/06/10 01:43:44;;;;;;;5.63;2.22;;;9.90;99.90;;;;;;20744508;28;20374;-75
2022/06/10 01:53:54;;;;;;;6.43;2.40;;;9.70;99.90;;;;;;20743950;28;20112;-76
2022/06/10 02:04:06;;;;;;;9.77;2.58;;;9.60;99.90;;;;;;20742918;28;20038;-76
2022/06/10 02:14:20;;;;;;;7.80;2.40;;;9.30;99.90;;;;;;20743295;28;20552;-75
2022/06/10 02:24:26;;;;;;;4.88;2.35;;;9.00;99.90;;;;;;20742670;28;20100;-75
2022/06/10 02:34:28;;;;;;;4.22;2.22;;;9.00;99.90;;;;;;20742421;28;20041;-76
2022/06/10 02:44:47;;;;;;;5.15;1.98;;;9.10;99.90;;;;;;20742195;28;20384;-75
2022/06/10 02:54:48;;;;;;;6.88;2.90;;;9.40;99.90;;;;;;20741430;28;20076;-76
2022/06/10 03:05:10;;;;;;;11.37;5.07;;;9.30;99.90;;;;;;20723361;28;20084;-75
2022/06/10 03:15:10;;;;;;;16.63;6.67;;;9.70;99.90;;;;;;20742935;28;20429;-75
2022/06/10 03:25:43;;;;;;;20.13;7.63;;;9.90;99.90;;;;;;20754816;28;20053;-75
2022/06/10 03:35:54;;;;;;;14.35;5.40;;;9.70;99.90;;;;;;20729658;28;20046;-77
2022/06/10 03:46:00;;;;;;;10.90;4.15;;;9.50;99.90;;;;;;20735638;28;20049;-76
2022/06/10 03:56:01;;;;;;;9.10;3.67;;;9.20;99.90;;;;;;20752565;28;20102;-76
2022/06/10 04:06:02;;;;;;;6.80;2.67;;;9.20;99.90;;;;;;20751895;28;20026;-75
2022/06/10 04:16:03;;;;;;;7.18;2.78;;;9.00;99.90;;;;;;20731048;28;20029;-76
2022/06/10 04:26:04;;;;;;;5.90;2.50;;;9.20;99.90;;;;;;20774198;23;20042;-77
2022/06/10 04:36:06;;;;;;;8.07;3.37;;;9.40;99.90;;;;;;20810110;28;20271;-75
2022/06/10 04:46:09;;;;;;;7.55;3.35;;;9.50;99.90;;;;;;20844471;23;20405;-76
2022/06/10 04:56:09;;;;;;;7.95;3.80;;;9.80;99.90;;;;;;20868500;28;20033;-76
2022/06/10 05:06:10;;;;;;;7.97;4.70;;;9.80;99.90;;;;;;20856081;28;20029;-75
2022/06/10 05:16:13;;;;;;;18.57;5.63;;;9.70;99.90;;;;;;20827836;28;20037;-76
2022/06/10 05:26:15;;;;;;;9.48;5.93;;;9.70;99.90;;;;;;20826887;28;20569;-76
2022/06/10 05:36:17;;;;;;;14.05;5.88;;;9.80;99.90;;;;;;20826557;28;20040;-75
2022/06/10 05:46:18;;;;;;;9.63;5.57;;;10.30;99.90;;;;;;20825427;28;20060;-76
2022/06/10 05:56:19;;;;;;;7.60;4.47;;;10.90;99.90;;;;;;20825299;28;20029;-76
2022/06/10 06:06:21;;;;;;;8.50;3.83;;;11.70;99.90;;;;;;20823164;28;20424;-76
2022/06/10 06:16:22;;;;;;;4.75;2.80;;;12.40;99.90;;;;;;20824554;28;20392;-76
2022/06/10 06:26:22;;;;;;;4.40;2.60;;;13.00;99.90;;;;;;20824248;28;20053;-76
2022/06/10 06:36:25;;;;;;;7.70;3.13;;;13.20;99.90;;;;;;20823421;28;20117;-77
2022/06/10 06:46:27;;;;;;;6.15;2.30;;;13.80;99.90;;;;;;20826104;28;20124;-75
2022/06/10 06:56:28;;;;;;;4.67;2.43;;;14.00;99.90;;;;;;20837585;28;20448;-76
2022/06/10 07:06:29;;;;;;;;;;;14.50;99.90;;;;;;20838881;28;20030;-74
2022/06/10 07:16:30;;;;;;;6.00;1.70;;;15.50;99.90;;;;;;20837749;28;19920;-75
2022/06/10 07:26:31;;;;;;;4.83;1.90;;;16.10;99.90;;;;;;20836736;28;20335;-76
2022/06/10 07:36:32;;;;;;;5.73;1.70;;;16.70;99.90;;;;;;20836035;28;20025;-75
2022/06/10 07:46:33;;;;;;;3.47;1.40;;;16.60;99.90;;;;;;20834747;28;20045;-75
2022/06/10 07:56:34;;;;;;;9.80;2.00;;;18.10;99.90;;;;;;20834044;28;20025;-75
2022/06/10 08:06:40;;;;;;;6.72;1.52;;;18.30;99.90;;;;;;20847804;28;20029;-76
2022/06/10 08:16:40;;;;;;;306.38;55.47;;;18.00;99.90;;;;;;20832950;28;20030;-76
2022/06/10 08:26:41;;;;;;;62.50;11.27;;;19.10;99.90;;;;;;20832097;28;20410;-76
2022/06/10 08:36:42;;;;;;;30.00;4.80;;;19.80;99.90;;;;;;20831072;28;20032;-76
2022/06/10 08:46:55;;;;;;;28.60;4.70;;;19.70;99.90;;;;;;20828943;28;20037;-76
2022/06/10 08:57:05;;;;;;;5.18;1.25;;;19.80;99.90;;;;;;20848627;28;20484;-77
2022/06/10 09:07:23;;;;;;;5.28;1.10;;;19.80;99.90;;;;;;20829428;28;20106;-75
2022/06/10 09:17:40;;;;;;;33.95;4.47;;;21.60;99.90;;;;;;20829423;28;20434;-76
2022/06/10 09:27:51;;;;;;;7.75;1.10;;;22.20;99.90;;;;;;20828739;28;20037;-77
2022/06/10 09:38:24;;;;;;;9.40;2.00;;;22.70;99.90;;;;;;20826965;28;20025;-77
2022/06/10 09:48:53;;;;;;;3.88;0.85;;;22.40;99.90;;;;;;20833602;28;20033;-77
2022/06/10 09:59:32;;;;;;;6.20;0.73;;;23.30;99.90;;;;;;20841275;28;20473;-76
2022/06/10 10:10:20;;;;;;;2.72;0.70;;;23.80;99.90;;;;;;20825883;28;20036;-75
2022/06/10 10:20:46;;;;;;;3.28;0.80;;;23.20;99.90;;;;;;20802880;28;20045;-75
2022/06/10 10:31:17;;;;;;;5.60;0.70;;;24.00;99.90;;;;;;20839031;28;20033;-75
2022/06/10 10:41:34;;;;;;;2.22;0.50;;;23.40;99.90;;;;;;20839344;28;20080;-75
2022/06/10 10:51:40;;;;;;;2.33;0.68;;;23.40;99.90;;;;;;20882763;22;20135;-75
2022/06/10 11:01:44;;;;;;;2.10;0.65;;;24.00;99.90;;;;;;20839717;28;20045;-76
2022/06/10 11:35:31;;;;;;;2.70;0.70;;;25.10;99.90;;;;;;20508549;28;20062;-76
2022/06/10 11:46:23;;;;;;;5.05;0.88;;;24.90;99.90;;;;;;20493696;28;20071;-76
2022/06/10 12:20:40;;;;;;;4.82;0.60;;;25.00;99.90;;;;;;20266351;29;20044;-76
2022/06/10 12:31:40;;;;;;;3.67;0.63;;;25.20;99.90;;;;;;20216700;29;20620;-76
2022/06/10 12:42:50;;;;;;;1.60;0.63;;;25.70;99.90;;;;;;20582840;28;20093;-76
2022/06/10 13:39:46;;;;;;;7.07;0.93;;;26.70;99.90;;;;;;19982263;29;20050;-77
2022/06/10 14:13:24;;;;;;;2.73;0.60;;;26.10;99.90;;;;;;20408907;28;20044;-77
2022/06/10 14:23:33;;;;;;;0.95;0.50;;;25.80;99.90;;;;;;20404288;28;20295;-77
2022/06/10 14:33:45;;;;;;;5.10;0.50;;;26.20;99.50;;;;;;20536897;28;20049;-77
2022/06/10 14:43:54;;;;;;;1.52;0.50;;;25.90;99.90;;;;;;20723986;28;20049;-77
2022/06/10 14:53:59;;;;;;;4.15;0.50;;;25.80;99.90;;;;;;20722941;28;20381;-77
2022/06/10 15:03:59;;;;;;;3.20;0.70;;;26.10;98.60;;;;;;20722535;28;20038;-77
2022/06/10 15:14:00;;;;;;;1.25;0.30;;;26.10;99.20;;;;;;20729419;28;20049;-77
2022/06/10 15:24:02;;;;;;;4.03;1.42;;;25.60;99.10;;;;;;20735799;28;20081;-78
2022/06/10 15:34:03;;;;;;;4.05;0.30;;;25.30;99.00;;;;;;20733985;28;20096;-76
2022/06/10 15:44:11;;;;;;;;;;;24.40;99.90;;;;;;20733043;28;20042;-77
2022/06/10 16:05:00;;;;;;;1.02;0.40;;;24.80;98.60;;;;;;20685651;28;20393;-78
2022/06/10 16:15:01;;;;;;;;;;;24.20;99.70;;;;;;20678074;28;20042;-78
2022/06/10 16:25:02;;;;;;;0.95;0.50;;;24.50;98.40;;;;;;20707794;28;20309;-78
2022/06/10 16:35:03;;;;;;;;;;;23.90;99.70;;;;;;20700660;28;20100;-78
2022/06/10 16:45:04;;;;;;;3.60;0.60;;;24.10;99.90;;;;;;20698300;28;19917;-77
2022/06/10 16:55:04;;;;;;;;;;;24.00;99.90;;;;;;20691323;28;20444;-77
2022/06/10 17:05:17;;;;;;;2.15;0.70;;;23.80;99.90;;;;;;20687219;28;19920;-78
2022/06/10 17:26:31;;;;;;;1.02;0.38;;;23.70;99.90;;;;;;8501885;26;20500;-77
2022/06/10 18:01:04;;;;;;;0.63;0.25;;;23.80;99.90;;;;;;20188759;29;20131;-77
2022/06/10 18:35:33;;;;;;;0.95;0.38;;;28.40;97.80;;;;;;20845504;23;20060;-76
2022/06/10 18:57:17;;;;;;;2.95;0.80;;;22.40;99.90;;;;;;20791571;28;20096;-77
2022/06/10 19:19:49;;;;;;;2.28;0.70;;;19.80;99.90;;;;;;20463748;28;20118;-76
2022/06/10 19:30:11;;;;;;;2.60;0.85;;;19.10;99.90;;;;;;20188509;29;20128;-76
2022/06/10 19:41:09;;;;;;;1.98;0.82;;;18.30;99.90;;;;;;20535302;23;20652;-76
2022/06/10 20:15:19;;;;;;;3.90;0.75;;;17.00;99.90;;;;;;20421684;29;20063;-75
2022/06/10 20:26:08;;;;;;;1.45;0.85;;;16.40;99.90;;;;;;20415080;29;20443;-75
2022/06/10 20:36:49;;;;;;;3.10;1.40;;;16.10;99.90;;;;;;20511689;28;20061;-75
2022/06/10 20:47:49;;;;;;;5.80;1.20;;;15.50;99.90;;;;;;20752195;28;20053;-75
2022/06/10 20:58:29;;;;;;;5.80;1.40;;;15.50;99.90;;;;;;20827740;28;20038;-75
2022/06/10 21:09:28;;;;;;;2.70;1.08;;;15.00;99.90;;;;;;20829489;28;20122;-74
2022/06/10 21:20:44;;;;;;;;;;;;;;;;;;;;;
2022/06/10 21:31:59;;;;;;;2.47;1.50;;;14.70;99.90;;;;;;20576843;28;20047;-75
2022/06/10 21:53:28;;;;;;;3.95;1.10;;;14.30;99.90;;;;;;20697905;28;20044;-77
2022/06/10 22:04:47;;;;;;;2.10;1.48;;;14.30;99.90;;;;;;20824454;28;20052;-77
2022/06/10 22:15:35;;;;;;;2.85;1.35;;;13.90;99.90;;;;;;20581878;28;20477;-77
2022/06/10 22:26:01;;;;;;;1.58;1.20;;;13.50;99.90;;;;;;20617379;22;20496;-76
2022/06/10 22:36:02;;;;;;;3.63;1.47;;;13.40;99.90;;;;;;20764304;28;20062;-76
2022/06/10 22:46:05;;;;;;;3.33;1.73;;;13.20;99.90;;;;;;20742756;28;20053;-76
2022/06/10 22:56:06;;;;;;;3.17;1.92;;;12.90;99.90;;;;;;20757923;28;20074;-77
2022/06/10 23:06:25;;;;;;;3.47;1.70;;;12.70;99.90;;;;;;20756818;28;20100;-76
2022/06/10 23:16:36;;;;;;;5.55;2.05;;;12.60;99.90;;;;;;20756585;28;20496;-76
2022/06/10 23:26:37;;;;;;;3.45;1.52;;;12.50;99.90;;;;;;20755808;28;20054;-76
2022/06/10 23:36:43;;;;;;;5.50;1.83;;;12.30;99.90;;;;;;20753788;28;20479;-77
2022/06/10 23:57:05;;;;;;;4.15;1.95;;;12.10;99.90;;;;;;20753218;28;20512;-76
